Weaver, South Dakota
Current Conditions -  °F | °C
As of 3:53 AM on Sunday 26 Oct 2014 (Local Time) from KICR Reporting Station
Clear Clear  
Wind Chill: 53°   Ceiling: Unl
Heat Index: 53°   Visibility: 10mi
Dew Point: 34°   Wind: 13mph
Humidity: 48%   Direction: 130°SE
Pressure: 29.83"   Gusts: 23mph
Location:  43.2923°N, 99.8934°W
Report Text: KICR 260853Z AUTO 13011G20KT 10SM CLR 12/01 A2983 RMK AO2 SLP095 T01170011 56026 $
Loading
Personal Weather Stations






























Interactive Weather Map
Tropical Storm Tracking
New forecast layout! Learn more

10-Day Weather Forecast

Advertisements
Track Severe Weather on mobile